Airfield :
LOGIN :

Register | Disclaimer

   EN    FR    IT 

 










Legend :    VFR   Marginal VFR   IFR   Intensive IFR   Very Intensive IFR
Visi :
Ceiling :
>= 8 km
>= 3000ft
5 to 8 km
1000 to 3000 ft
1500m to 5 km
500 to 1000 ft
800 to 1500m
200 to 500 ft
< 800m
< 200 ft
Symbols :   Thunderstorms  Fog  Heavy snow  Heavy precipitations  Wind > 20 kt
SIGMETs :     Misc.  Thunderstorms  Icing  Turbulence  Mountain Waves  Volcanic Ashes







- Airport Elevation : 0 ft


ETEB - Ansbach Army Heliport

CURRENT METAR :
  • 180756Z AUTO 30003KT 9999 CLR 20/15 A3017 RMK AO2 SLP213 T02010153 $

EXPIRED METARs :
  • 180656Z AUTO 29003KT 9999 CLR 18/15 A3017 RMK AO2 SLP215 T01840151 $
  • 180556Z AUTO 26004KT 9999 SCT100 17/15 A3016 RMK AO2 SLP207 T01740150 10174 20164 52009 $
  • 180456Z AUTO 33005KT 9999 OVC100 17/15 A3015 RMK AO2 SLP202 T01710147 $

TAF TAF ETEB
Valid from the 18 at 05:00 until the 19 at 11:00 UTC


1805/1911 VRB06KT 9999 SCT050 QNH3005INS
BECMG 1811/1812 35009KT 8000 -SHRA BKN050 QNH3006INS
TEMPO 1812/1815 6000 -TSRA BKN030CB
BECMG 1817/1818 VRB06KT 9999 NSW SCT050 BKN080 QNH3009INS
BECMG 1910/1911 35009KT 8000 -SHRA BKN040 QNH3012INS TX26/1814Z TN15/1805Z
No reported NOTAMs for that airfield.



MET'MAP, your aeronautical weather chart ! - Copyright ORBIFLY December 2007 - Disclaimer

ORBIFLY MET'MAP TEAM :

Programming & Development : Alexandra Zaïnal
Concept & Development : Baudouin d'Aumeries
Co-Development & Prog : Marc-Olivier Méhu
Technical & hardware support : Manuel Goepfert

Contact : metmap@orbifly.com




SOURCES & CREDITS :

   NOAA